sensor_id;sensor_type;location;lat;lon;timestamp;P1;durP1;ratioP1;P2;durP2;ratioP2
20080;SDS011;10200;49.232;9.222;2023-01-01T00:01:06;355.17;;;250.10;;
20080;SDS011;10200;49.232;9.222;2023-01-01T00:03:36;350.83;;;247.37;;
20080;SDS011;10200;49.232;9.222;2023-01-01T00:06:09;342.40;;;241.90;;
20080;SDS011;10200;49.232;9.222;2023-01-01T00:08:37;373.23;;;259.47;;
20080;SDS011;10200;49.232;9.222;2023-01-01T00:11:04;369.87;;;256.03;;
20080;SDS011;10200;49.232;9.222;2023-01-01T00:13:32;367.67;;;255.53;;
20080;SDS011;10200;49.232;9.222;2023-01-01T00:18:34;316.07;;;216.00;;
20080;SDS011;10200;49.232;9.222;2023-01-01T00:21:01;234.20;;;157.80;;
20080;SDS011;10200;49.232;9.222;2023-01-01T00:23:31;285.77;;;189.10;;
20080;SDS011;10200;49.232;9.222;2023-01-01T00:25:57;283.30;;;196.90;;
20080;SDS011;10200;49.232;9.222;2023-01-01T00:28:23;313.63;;;217.13;;
20080;SDS011;10200;49.232;9.222;2023-01-01T00:30:49;317.13;;;214.37;;
20080;SDS011;10200;49.232;9.222;2023-01-01T00:33:14;315.33;;;211.93;;
20080;SDS011;10200;49.232;9.222;2023-01-01T00:35:40;267.43;;;179.00;;
20080;SDS011;10200;49.232;9.222;2023-01-01T00:38:05;297.13;;;196.30;;
20080;SDS011;10200;49.232;9.222;2023-01-01T00:40:31;327.60;;;217.50;;
20080;SDS011;10200;49.232;9.222;2023-01-01T00:42:56;305.73;;;208.83;;
20080;SDS011;10200;49.232;9.222;2023-01-01T00:45:22;320.17;;;217.03;;
20080;SDS011;10200;49.232;9.222;2023-01-01T00:47:49;315.57;;;212.57;;
20080;SDS011;10200;49.232;9.222;2023-01-01T00:50:16;285.80;;;196.37;;
20080;SDS011;10200;49.232;9.222;2023-01-01T00:52:41;333.50;;;219.60;;
20080;SDS011;10200;49.232;9.222;2023-01-01T00:55:07;298.70;;;205.40;;
20080;SDS011;10200;49.232;9.222;2023-01-01T00:57:33;242.03;;;160.57;;
20080;SDS011;10200;49.232;9.222;2023-01-01T00:59:59;252.27;;;166.13;;
20080;SDS011;10200;49.232;9.222;2023-01-01T01:02:25;232.03;;;146.27;;
20080;SDS011;10200;49.232;9.222;2023-01-01T01:04:50;226.00;;;148.37;;
20080;SDS011;10200;49.232;9.222;2023-01-01T01:07:16;233.20;;;149.50;;
20080;SDS011;10200;49.232;9.222;2023-01-01T01:09:41;215.33;;;137.60;;
20080;SDS011;10200;49.232;9.222;2023-01-01T01:12:07;224.47;;;140.33;;
20080;SDS011;10200;49.232;9.222;2023-01-01T01:14:32;220.73;;;140.67;;
20080;SDS011;10200;49.232;9.222;2023-01-01T01:16:58;192.40;;;124.27;;
20080;SDS011;10200;49.232;9.222;2023-01-01T01:19:24;207.07;;;127.20;;
20080;SDS011;10200;49.232;9.222;2023-01-01T01:21:50;189.37;;;122.90;;
20080;SDS011;10200;49.232;9.222;2023-01-01T01:24:16;198.70;;;129.57;;
20080;SDS011;10200;49.232;9.222;2023-01-01T01:26:42;210.53;;;134.73;;
20080;SDS011;10200;49.232;9.222;2023-01-01T01:29:07;214.47;;;135.13;;
20080;SDS011;10200;49.232;9.222;2023-01-01T01:31:33;211.47;;;132.73;;
20080;SDS011;10200;49.232;9.222;2023-01-01T01:33:59;213.30;;;143.43;;
20080;SDS011;10200;49.232;9.222;2023-01-01T01:36:25;208.83;;;134.83;;
20080;SDS011;10200;49.232;9.222;2023-01-01T01:38:51;215.53;;;138.77;;
20080;SDS011;10200;49.232;9.222;2023-01-01T01:41:19;246.70;;;155.70;;
20080;SDS011;10200;49.232;9.222;2023-01-01T01:43:51;264.00;;;171.43;;
20080;SDS011;10200;49.232;9.222;2023-01-01T01:46:21;220.50;;;145.00;;
20080;SDS011;10200;49.232;9.222;2023-01-01T01:48:48;233.57;;;144.73;;
20080;SDS011;10200;49.232;9.222;2023-01-01T01:51:23;190.73;;;125.57;;
20080;SDS011;10200;49.232;9.222;2023-01-01T01:53:54;190.93;;;123.47;;
20080;SDS011;10200;49.232;9.222;2023-01-01T01:56:32;189.07;;;120.30;;
20080;SDS011;10200;49.232;9.222;2023-01-01T01:59:06;187.93;;;124.00;;
20080;SDS011;10200;49.232;9.222;2023-01-01T02:01:32;182.70;;;113.70;;
20080;SDS011;10200;49.232;9.222;2023-01-01T02:03:58;228.00;;;141.40;;
20080;SDS011;10200;49.232;9.222;2023-01-01T02:06:26;218.30;;;140.77;;
20080;SDS011;10200;49.232;9.222;2023-01-01T02:08:54;179.03;;;118.83;;
20080;SDS011;10200;49.232;9.222;2023-01-01T02:11:21;178.83;;;114.60;;
20080;SDS011;10200;49.232;9.222;2023-01-01T02:13:47;176.53;;;111.13;;
20080;SDS011;10200;49.232;9.222;2023-01-01T02:24:42;179.10;;;118.53;;
20080;SDS011;10200;49.232;9.222;2023-01-01T02:27:26;199.87;;;127.33;;
20080;SDS011;10200;49.232;9.222;2023-01-01T02:30:04;194.90;;;129.10;;
20080;SDS011;10200;49.232;9.222;2023-01-01T02:32:40;209.63;;;132.23;;
20080;SDS011;10200;49.232;9.222;2023-01-01T02:35:20;188.97;;;124.73;;
20080;SDS011;10200;49.232;9.222;2023-01-01T02:38:00;201.77;;;127.33;;
20080;SDS011;10200;49.232;9.222;2023-01-01T02:40:34;208.37;;;126.13;;
20080;SDS011;10200;49.232;9.222;2023-01-01T02:43:05;187.47;;;119.03;;
20080;SDS011;10200;49.232;9.222;2023-01-01T02:45:31;185.83;;;117.70;;
20080;SDS011;10200;49.232;9.222;2023-01-01T02:47:57;178.23;;;117.47;;
20080;SDS011;10200;49.232;9.222;2023-01-01T02:50:27;161.03;;;103.37;;
20080;SDS011;10200;49.232;9.222;2023-01-01T02:58:20;99.20;;;64.57;;
20080;SDS011;10200;49.232;9.222;2023-01-01T03:01:08;81.30;;;52.63;;
20080;SDS011;10200;49.232;9.222;2023-01-01T03:03:45;65.57;;;40.97;;
20080;SDS011;10200;49.232;9.222;2023-01-01T03:06:25;59.97;;;38.63;;
20080;SDS011;10200;49.232;9.222;2023-01-01T03:12:09;47.70;;;31.87;;
20080;SDS011;10200;49.232;9.222;2023-01-01T03:15:16;46.63;;;28.93;;
20080;SDS011;10200;49.232;9.222;2023-01-01T03:17:52;44.63;;;29.00;;
20080;SDS011;10200;49.232;9.222;2023-01-01T03:20:28;37.07;;;26.03;;
20080;SDS011;10200;49.232;9.222;2023-01-01T03:22:57;37.47;;;24.37;;
20080;SDS011;10200;49.232;9.222;2023-01-01T03:25:31;36.07;;;22.97;;
20080;SDS011;10200;49.232;9.222;2023-01-01T03:28:02;35.60;;;22.23;;
20080;SDS011;10200;49.232;9.222;2023-01-01T03:30:31;30.47;;;21.63;;
20080;SDS011;10200;49.232;9.222;2023-01-01T03:33:04;26.10;;;18.67;;
20080;SDS011;10200;49.232;9.222;2023-01-01T03:40:56;28.03;;;17.87;;
20080;SDS011;10200;49.232;9.222;2023-01-01T03:46:06;25.73;;;18.33;;
20080;SDS011;10200;49.232;9.222;2023-01-01T03:48:32;21.80;;;16.13;;
20080;SDS011;10200;49.232;9.222;2023-01-01T03:51:22;24.63;;;17.63;;
20080;SDS011;10200;49.232;9.222;2023-01-01T03:54:00;26.53;;;17.03;;
20080;SDS011;10200;49.232;9.222;2023-01-01T03:56:35;28.47;;;16.67;;
20080;SDS011;10200;49.232;9.222;2023-01-01T03:59:18;21.10;;;14.33;;
20080;SDS011;10200;49.232;9.222;2023-01-01T04:01:50;19.57;;;14.07;;
20080;SDS011;10200;49.232;9.222;2023-01-01T04:04:20;19.17;;;13.13;;
20080;SDS011;10200;49.232;9.222;2023-01-01T04:06:46;21.50;;;14.70;;
20080;SDS011;10200;49.232;9.222;2023-01-01T04:09:14;23.67;;;14.70;;
20080;SDS011;10200;49.232;9.222;2023-01-01T04:11:45;22.30;;;14.10;;
20080;SDS011;10200;49.232;9.222;2023-01-01T04:16:57;20.50;;;12.93;;
20080;SDS011;10200;49.232;9.222;2023-01-01T04:19:23;15.80;;;11.67;;
20080;SDS011;10200;49.232;9.222;2023-01-01T04:21:49;17.10;;;11.43;;
20080;SDS011;10200;49.232;9.222;2023-01-01T04:24:14;16.60;;;12.00;;
20080;SDS011;10200;49.232;9.222;2023-01-01T04:26:40;15.93;;;10.77;;
20080;SDS011;10200;49.232;9.222;2023-01-01T04:29:06;17.03;;;11.43;;
20080;SDS011;10200;49.232;9.222;2023-01-01T04:31:32;13.67;;;10.70;;
20080;SDS011;10200;49.232;9.222;2023-01-01T04:33:58;19.70;;;11.37;;
20080;SDS011;10200;49.232;9.222;2023-01-01T04:36:24;18.77;;;11.27;;
20080;SDS011;10200;49.232;9.222;2023-01-01T04:38:49;16.83;;;11.83;;
20080;SDS011;10200;49.232;9.222;2023-01-01T04:41:15;17.17;;;12.90;;
20080;SDS011;10200;49.232;9.222;2023-01-01T04:43:41;18.27;;;11.40;;
20080;SDS011;10200;49.232;9.222;2023-01-01T04:46:08;18.17;;;11.70;;
20080;SDS011;10200;49.232;9.222;2023-01-01T04:48:34;18.43;;;13.13;;
20080;SDS011;10200;49.232;9.222;2023-01-01T04:51:00;15.30;;;10.33;;
20080;SDS011;10200;49.232;9.222;2023-01-01T04:53:31;21.77;;;10.53;;
20080;SDS011;10200;49.232;9.222;2023-01-01T04:56:08;22.30;;;13.63;;
20080;SDS011;10200;49.232;9.222;2023-01-01T04:58:36;15.20;;;10.30;;
20080;SDS011;10200;49.232;9.222;2023-01-01T05:01:03;14.77;;;10.00;;
20080;SDS011;10200;49.232;9.222;2023-01-01T05:03:29;14.73;;;9.87;;
20080;SDS011;10200;49.232;9.222;2023-01-01T05:06:06;14.40;;;10.00;;
20080;SDS011;10200;49.232;9.222;2023-01-01T05:08:34;16.33;;;9.63;;
20080;SDS011;10200;49.232;9.222;2023-01-01T05:11:02;14.43;;;9.90;;
20080;SDS011;10200;49.232;9.222;2023-01-01T05:13:29;17.13;;;10.20;;
20080;SDS011;10200;49.232;9.222;2023-01-01T05:15:55;15.23;;;9.77;;
20080;SDS011;10200;49.232;9.222;2023-01-01T05:18:21;13.10;;;9.40;;
20080;SDS011;10200;49.232;9.222;2023-01-01T05:20:47;14.40;;;8.83;;
20080;SDS011;10200;49.232;9.222;2023-01-01T05:23:15;14.90;;;9.20;;
20080;SDS011;10200;49.232;9.222;2023-01-01T05:25:42;16.07;;;9.83;;
20080;SDS011;10200;49.232;9.222;2023-01-01T05:28:08;15.10;;;9.17;;
20080;SDS011;10200;49.232;9.222;2023-01-01T05:30:37;13.53;;;9.53;;
20080;SDS011;10200;49.232;9.222;2023-01-01T05:33:03;13.27;;;8.67;;
20080;SDS011;10200;49.232;9.222;2023-01-01T05:35:29;18.03;;;8.83;;
20080;SDS011;10200;49.232;9.222;2023-01-01T05:37:55;12.47;;;9.03;;
20080;SDS011;10200;49.232;9.222;2023-01-01T05:40:21;17.50;;;9.47;;
20080;SDS011;10200;49.232;9.222;2023-01-01T05:42:47;11.53;;;7.73;;
20080;SDS011;10200;49.232;9.222;2023-01-01T05:45:12;11.57;;;7.47;;
20080;SDS011;10200;49.232;9.222;2023-01-01T05:47:38;11.07;;;7.43;;
20080;SDS011;10200;49.232;9.222;2023-01-01T05:50:03;9.50;;;6.60;;
20080;SDS011;10200;49.232;9.222;2023-01-01T05:52:30;9.07;;;6.70;;
20080;SDS011;10200;49.232;9.222;2023-01-01T05:54:55;10.57;;;6.50;;
20080;SDS011;10200;49.232;9.222;2023-01-01T05:57:22;12.53;;;8.37;;
20080;SDS011;10200;49.232;9.222;2023-01-01T05:59:48;14.33;;;9.07;;
20080;SDS011;10200;49.232;9.222;2023-01-01T06:02:13;15.80;;;9.93;;
20080;SDS011;10200;49.232;9.222;2023-01-01T06:04:39;15.77;;;9.40;;
20080;SDS011;10200;49.232;9.222;2023-01-01T06:07:04;15.80;;;8.87;;
20080;SDS011;10200;49.232;9.222;2023-01-01T06:09:30;15.83;;;10.87;;
20080;SDS011;10200;49.232;9.222;2023-01-01T06:11:56;14.50;;;9.13;;
20080;SDS011;10200;49.232;9.222;2023-01-01T06:14:21;16.27;;;10.13;;
20080;SDS011;10200;49.232;9.222;2023-01-01T06:16:47;13.17;;;9.40;;
20080;SDS011;10200;49.232;9.222;2023-01-01T06:19:12;13.93;;;10.53;;
20080;SDS011;10200;49.232;9.222;2023-01-01T06:21:38;16.63;;;11.40;;
20080;SDS011;10200;49.232;9.222;2023-01-01T06:24:03;17.67;;;11.40;;
20080;SDS011;10200;49.232;9.222;2023-01-01T06:26:30;15.33;;;9.90;;
20080;SDS011;10200;49.232;9.222;2023-01-01T06:28:57;14.70;;;10.43;;
20080;SDS011;10200;49.232;9.222;2023-01-01T06:31:24;14.37;;;10.93;;
20080;SDS011;10200;49.232;9.222;2023-01-01T06:33:50;15.97;;;11.30;;
20080;SDS011;10200;49.232;9.222;2023-01-01T06:36:17;14.77;;;11.03;;
20080;SDS011;10200;49.232;9.222;2023-01-01T06:38:44;15.03;;;10.10;;
20080;SDS011;10200;49.232;9.222;2023-01-01T06:41:13;14.87;;;10.80;;
20080;SDS011;10200;49.232;9.222;2023-01-01T06:43:40;14.07;;;9.67;;
20080;SDS011;10200;49.232;9.222;2023-01-01T06:48:33;13.00;;;9.80;;
20080;SDS011;10200;49.232;9.222;2023-01-01T06:51:07;15.43;;;10.00;;
20080;SDS011;10200;49.232;9.222;2023-01-01T06:53:40;8.57;;;7.00;;
20080;SDS011;10200;49.232;9.222;2023-01-01T06:56:06;11.43;;;7.33;;
20080;SDS011;10200;49.232;9.222;2023-01-01T06:58:32;11.17;;;8.00;;
20080;SDS011;10200;49.232;9.222;2023-01-01T07:03:36;12.00;;;7.80;;
20080;SDS011;10200;49.232;9.222;2023-01-01T07:06:03;13.10;;;8.27;;
20080;SDS011;10200;49.232;9.222;2023-01-01T07:08:29;18.03;;;12.63;;
20080;SDS011;10200;49.232;9.222;2023-01-01T07:10:55;21.20;;;15.03;;
20080;SDS011;10200;49.232;9.222;2023-01-01T07:13:25;20.60;;;14.73;;
20080;SDS011;10200;49.232;9.222;2023-01-01T07:15:51;20.70;;;16.40;;
20080;SDS011;10200;49.232;9.222;2023-01-01T07:18:21;21.07;;;15.40;;
20080;SDS011;10200;49.232;9.222;2023-01-01T07:20:49;25.43;;;17.53;;
20080;SDS011;10200;49.232;9.222;2023-01-01T07:23:17;23.77;;;17.77;;
20080;SDS011;10200;49.232;9.222;2023-01-01T07:25:42;24.63;;;18.37;;
20080;SDS011;10200;49.232;9.222;2023-01-01T07:28:08;24.83;;;18.47;;
20080;SDS011;10200;49.232;9.222;2023-01-01T07:30:34;23.23;;;17.80;;
20080;SDS011;10200;49.232;9.222;2023-01-01T07:32:59;25.67;;;16.80;;
20080;SDS011;10200;49.232;9.222;2023-01-01T07:35:25;24.17;;;18.17;;
20080;SDS011;10200;49.232;9.222;2023-01-01T07:37:50;21.63;;;15.83;;
20080;SDS011;10200;49.232;9.222;2023-01-01T07:40:16;23.53;;;16.20;;
20080;SDS011;10200;49.232;9.222;2023-01-01T07:42:41;21.27;;;15.43;;
20080;SDS011;10200;49.232;9.222;2023-01-01T07:45:08;19.90;;;15.30;;
20080;SDS011;10200;49.232;9.222;2023-01-01T07:47:35;18.50;;;15.13;;
20080;SDS011;10200;49.232;9.222;2023-01-01T07:50:01;22.17;;;16.30;;
20080;SDS011;10200;49.232;9.222;2023-01-01T07:52:27;27.60;;;19.67;;
20080;SDS011;10200;49.232;9.222;2023-01-01T07:54:52;28.43;;;20.43;;
20080;SDS011;10200;49.232;9.222;2023-01-01T07:57:18;31.23;;;20.93;;
20080;SDS011;10200;49.232;9.222;2023-01-01T07:59:43;28.93;;;21.77;;
20080;SDS011;10200;49.232;9.222;2023-01-01T08:02:10;36.17;;;25.83;;
20080;SDS011;10200;49.232;9.222;2023-01-01T08:04:37;29.63;;;22.50;;
20080;SDS011;10200;49.232;9.222;2023-01-01T08:07:03;34.37;;;24.07;;
20080;SDS011;10200;49.232;9.222;2023-01-01T08:09:29;34.77;;;24.80;;
20080;SDS011;10200;49.232;9.222;2023-01-01T08:11:54;38.57;;;29.73;;
20080;SDS011;10200;49.232;9.222;2023-01-01T08:14:22;40.00;;;29.07;;
20080;SDS011;10200;49.232;9.222;2023-01-01T08:16:49;41.10;;;29.73;;
20080;SDS011;10200;49.232;9.222;2023-01-01T08:19:15;43.07;;;30.13;;
20080;SDS011;10200;49.232;9.222;2023-01-01T08:21:40;42.63;;;31.03;;
20080;SDS011;10200;49.232;9.222;2023-01-01T08:24:06;44.87;;;32.73;;
20080;SDS011;10200;49.232;9.222;2023-01-01T08:26:33;52.73;;;33.50;;
20080;SDS011;10200;49.232;9.222;2023-01-01T08:29:04;40.73;;;31.27;;
20080;SDS011;10200;49.232;9.222;2023-01-01T08:31:30;42.50;;;29.53;;
20080;SDS011;10200;49.232;9.222;2023-01-01T08:33:56;48.47;;;33.77;;
20080;SDS011;10200;49.232;9.222;2023-01-01T08:36:21;51.20;;;35.77;;
20080;SDS011;10200;49.232;9.222;2023-01-01T08:38:47;47.97;;;33.90;;
20080;SDS011;10200;49.232;9.222;2023-01-01T08:41:13;56.30;;;34.67;;
20080;SDS011;10200;49.232;9.222;2023-01-01T08:43:38;44.70;;;31.60;;
20080;SDS011;10200;49.232;9.222;2023-01-01T08:46:04;41.67;;;30.47;;
20080;SDS011;10200;49.232;9.222;2023-01-01T08:48:29;42.63;;;30.10;;
20080;SDS011;10200;49.232;9.222;2023-01-01T08:50:55;41.10;;;29.40;;
20080;SDS011;10200;49.232;9.222;2023-01-01T08:53:25;41.97;;;29.17;;
20080;SDS011;10200;49.232;9.222;2023-01-01T08:55:59;41.10;;;28.93;;
20080;SDS011;10200;49.232;9.222;2023-01-01T08:58:24;44.67;;;31.87;;
20080;SDS011;10200;49.232;9.222;2023-01-01T09:00:51;48.73;;;33.87;;
20080;SDS011;10200;49.232;9.222;2023-01-01T09:03:17;36.70;;;24.37;;
20080;SDS011;10200;49.232;9.222;2023-01-01T09:05:43;33.90;;;23.67;;
20080;SDS011;10200;49.232;9.222;2023-01-01T09:08:16;35.80;;;25.70;;
20080;SDS011;10200;49.232;9.222;2023-01-01T09:10:42;39.37;;;26.93;;
20080;SDS011;10200;49.232;9.222;2023-01-01T09:13:08;31.43;;;21.43;;
20080;SDS011;10200;49.232;9.222;2023-01-01T09:15:35;29.13;;;23.10;;
20080;SDS011;10200;49.232;9.222;2023-01-01T09:18:00;33.10;;;25.43;;
20080;SDS011;10200;49.232;9.222;2023-01-01T09:20:26;34.93;;;25.10;;
20080;SDS011;10200;49.232;9.222;2023-01-01T09:22:52;37.03;;;28.70;;
20080;SDS011;10200;49.232;9.222;2023-01-01T09:25:17;39.03;;;27.37;;
20080;SDS011;10200;49.232;9.222;2023-01-01T09:27:43;36.63;;;28.10;;
20080;SDS011;10200;49.232;9.222;2023-01-01T09:30:08;33.13;;;25.33;;
20080;SDS011;10200;49.232;9.222;2023-01-01T09:32:35;41.63;;;28.20;;
20080;SDS011;10200;49.232;9.222;2023-01-01T09:35:00;34.17;;;24.43;;
20080;SDS011;10200;49.232;9.222;2023-01-01T09:37:26;36.17;;;26.80;;
20080;SDS011;10200;49.232;9.222;2023-01-01T09:39:52;34.93;;;27.27;;
20080;SDS011;10200;49.232;9.222;2023-01-01T09:42:41;33.97;;;26.93;;
20080;SDS011;10200;49.232;9.222;2023-01-01T09:47:58;34.70;;;26.13;;
20080;SDS011;10200;49.232;9.222;2023-01-01T09:50:31;33.77;;;26.27;;
20080;SDS011;10200;49.232;9.222;2023-01-01T09:53:03;32.47;;;25.57;;
20080;SDS011;10200;49.232;9.222;2023-01-01T09:58:25;33.20;;;23.53;;
20080;SDS011;10200;49.232;9.222;2023-01-01T10:00:55;30.13;;;20.87;;
20080;SDS011;10200;49.232;9.222;2023-01-01T10:06:26;32.80;;;21.80;;
20080;SDS011;10200;49.232;9.222;2023-01-01T10:11:54;26.77;;;20.17;;
20080;SDS011;10200;49.232;9.222;2023-01-01T10:14:37;27.27;;;19.40;;
20080;SDS011;10200;49.232;9.222;2023-01-01T10:17:17;27.43;;;20.47;;
20080;SDS011;10200;49.232;9.222;2023-01-01T10:19:48;28.07;;;21.10;;
20080;SDS011;10200;49.232;9.222;2023-01-01T10:22:19;25.90;;;18.40;;
20080;SDS011;10200;49.232;9.222;2023-01-01T10:24:51;26.37;;;18.73;;
20080;SDS011;10200;49.232;9.222;2023-01-01T10:27:38;32.73;;;23.70;;
20080;SDS011;10200;49.232;9.222;2023-01-01T10:30:14;31.53;;;24.33;;
20080;SDS011;10200;49.232;9.222;2023-01-01T10:32:41;34.40;;;24.83;;
20080;SDS011;10200;49.232;9.222;2023-01-01T10:35:17;28.90;;;22.67;;
20080;SDS011;10200;49.232;9.222;2023-01-01T10:37:44;34.13;;;25.30;;
20080;SDS011;10200;49.232;9.222;2023-01-01T10:42:43;39.37;;;25.97;;
20080;SDS011;10200;49.232;9.222;2023-01-01T10:45:13;33.93;;;22.60;;
20080;SDS011;10200;49.232;9.222;2023-01-01T10:47:40;34.00;;;23.70;;
20080;SDS011;10200;49.232;9.222;2023-01-01T11:01:27;21.73;;;16.90;;
20080;SDS011;10200;49.232;9.222;2023-01-01T11:06:49;28.00;;;20.70;;
20080;SDS011;10200;49.232;9.222;2023-01-01T11:09:19;28.43;;;19.00;;
20080;SDS011;10200;49.232;9.222;2023-01-01T11:11:54;28.93;;;20.57;;
20080;SDS011;10200;49.232;9.222;2023-01-01T11:14:25;26.20;;;20.50;;
20080;SDS011;10200;49.232;9.222;2023-01-01T11:16:54;28.73;;;21.17;;
20080;SDS011;10200;49.232;9.222;2023-01-01T11:22:03;25.27;;;19.60;;
20080;SDS011;10200;49.232;9.222;2023-01-01T11:24:30;25.60;;;17.93;;
20080;SDS011;10200;49.232;9.222;2023-01-01T11:29:47;21.27;;;13.63;;
20080;SDS011;10200;49.232;9.222;2023-01-01T11:32:19;16.60;;;13.00;;
20080;SDS011;10200;49.232;9.222;2023-01-01T11:34:57;13.77;;;10.73;;
20080;SDS011;10200;49.232;9.222;2023-01-01T11:37:29;14.20;;;9.13;;
20080;SDS011;10200;49.232;9.222;2023-01-01T11:39:58;12.57;;;8.63;;
20080;SDS011;10200;49.232;9.222;2023-01-01T11:42:34;11.40;;;7.90;;
20080;SDS011;10200;49.232;9.222;2023-01-01T11:45:13;12.10;;;8.47;;
20080;SDS011;10200;49.232;9.222;2023-01-01T11:47:59;11.33;;;7.57;;
20080;SDS011;10200;49.232;9.222;2023-01-01T11:50:28;15.63;;;9.57;;
20080;SDS011;10200;49.232;9.222;2023-01-01T11:53:15;12.47;;;9.03;;
20080;SDS011;10200;49.232;9.222;2023-01-01T11:55:43;10.20;;;6.97;;
20080;SDS011;10200;49.232;9.222;2023-01-01T11:58:18;10.93;;;6.60;;
20080;SDS011;10200;49.232;9.222;2023-01-01T12:00:53;12.60;;;6.83;;
20080;SDS011;10200;49.232;9.222;2023-01-01T12:03:26;8.03;;;5.80;;
20080;SDS011;10200;49.232;9.222;2023-01-01T12:08:50;6.40;;;4.60;;
20080;SDS011;10200;49.232;9.222;2023-01-01T12:17:15;5.87;;;4.40;;
20080;SDS011;10200;49.232;9.222;2023-01-01T12:22:34;5.67;;;2.70;;
20080;SDS011;10200;49.232;9.222;2023-01-01T12:24:59;4.03;;;1.93;;
20080;SDS011;10200;49.232;9.222;2023-01-01T12:30:04;5.73;;;2.90;;
20080;SDS011;10200;49.232;9.222;2023-01-01T12:35:23;4.97;;;2.13;;
20080;SDS011;10200;49.232;9.222;2023-01-01T12:40:48;3.00;;;2.07;;
20080;SDS011;10200;49.232;9.222;2023-01-01T12:43:41;4.17;;;1.83;;
20080;SDS011;10200;49.232;9.222;2023-01-01T12:54:15;5.70;;;1.90;;
20080;SDS011;10200;49.232;9.222;2023-01-01T12:59:47;6.60;;;2.30;;
20080;SDS011;10200;49.232;9.222;2023-01-01T13:02:21;4.73;;;2.07;;
20080;SDS011;10200;49.232;9.222;2023-01-01T13:04:53;4.00;;;2.00;;
20080;SDS011;10200;49.232;9.222;2023-01-01T13:07:30;6.28;;;2.20;;
20080;SDS011;10200;49.232;9.222;2023-01-01T13:10:21;7.63;;;2.77;;
20080;SDS011;10200;49.232;9.222;2023-01-01T13:12:53;4.67;;;2.20;;
20080;SDS011;10200;49.232;9.222;2023-01-01T13:18:15;3.70;;;1.73;;
20080;SDS011;10200;49.232;9.222;2023-01-01T13:28:43;5.68;;;2.72;;
20080;SDS011;10200;49.232;9.222;2023-01-01T13:31:15;6.07;;;2.25;;
20080;SDS011;10200;49.232;9.222;2023-01-01T13:33:40;3.08;;;1.80;;
20080;SDS011;10200;49.232;9.222;2023-01-01T13:46:29;4.07;;;2.07;;
20080;SDS011;10200;49.232;9.222;2023-01-01T13:49:17;4.95;;;1.77;;
20080;SDS011;10200;49.232;9.222;2023-01-01T13:52:11;7.40;;;2.50;;
20080;SDS011;10200;49.232;9.222;2023-01-01T14:03:42;3.78;;;2.90;;
20080;SDS011;10200;49.232;9.222;2023-01-01T14:06:20;8.97;;;4.40;;
20080;SDS011;10200;49.232;9.222;2023-01-01T14:08:46;6.45;;;2.72;;
20080;SDS011;10200;49.232;9.222;2023-01-01T14:11:25;3.73;;;2.80;;
20080;SDS011;10200;49.232;9.222;2023-01-01T14:13:52;4.85;;;3.03;;
20080;SDS011;10200;49.232;9.222;2023-01-01T14:16:17;6.22;;;2.17;;
20080;SDS011;10200;49.232;9.222;2023-01-01T14:18:50;17.35;;;2.65;;
20080;SDS011;10200;49.232;9.222;2023-01-01T14:21:25;7.07;;;2.42;;
20080;SDS011;10200;49.232;9.222;2023-01-01T14:24:01;5.65;;;2.78;;
20080;SDS011;10200;49.232;9.222;2023-01-01T14:26:29;4.97;;;2.70;;
20080;SDS011;10200;49.232;9.222;2023-01-01T14:29:00;6.90;;;2.58;;
20080;SDS011;10200;49.232;9.222;2023-01-01T14:31:30;5.70;;;2.40;;
20080;SDS011;10200;49.232;9.222;2023-01-01T14:33:59;3.97;;;2.40;;
20080;SDS011;10200;49.232;9.222;2023-01-01T14:36:27;6.90;;;2.70;;
20080;SDS011;10200;49.232;9.222;2023-01-01T14:38:55;4.13;;;2.57;;
20080;SDS011;10200;49.232;9.222;2023-01-01T14:41:28;7.30;;;3.53;;
20080;SDS011;10200;49.232;9.222;2023-01-01T14:44:18;6.27;;;4.30;;
20080;SDS011;10200;49.232;9.222;2023-01-01T14:46:47;5.07;;;2.60;;
20080;SDS011;10200;49.232;9.222;2023-01-01T14:49:17;6.88;;;2.58;;
20080;SDS011;10200;49.232;9.222;2023-01-01T14:51:58;6.03;;;2.30;;
20080;SDS011;10200;49.232;9.222;2023-01-01T14:54:29;4.07;;;2.73;;
20080;SDS011;10200;49.232;9.222;2023-01-01T14:56:57;8.43;;;3.65;;
20080;SDS011;10200;49.232;9.222;2023-01-01T14:59:25;5.90;;;2.77;;
20080;SDS011;10200;49.232;9.222;2023-01-01T15:04:36;3.97;;;2.47;;
20080;SDS011;10200;49.232;9.222;2023-01-01T15:07:01;7.77;;;2.40;;
20080;SDS011;10200;49.232;9.222;2023-01-01T15:09:27;6.78;;;3.78;;
20080;SDS011;10200;49.232;9.222;2023-01-01T15:11:55;5.50;;;3.47;;
20080;SDS011;10200;49.232;9.222;2023-01-01T15:17:00;6.20;;;2.97;;
20080;SDS011;10200;49.232;9.222;2023-01-01T15:19:28;9.47;;;3.10;;
20080;SDS011;10200;49.232;9.222;2023-01-01T15:21:54;7.13;;;4.10;;
20080;SDS011;10200;49.232;9.222;2023-01-01T15:24:20;5.50;;;3.20;;
20080;SDS011;10200;49.232;9.222;2023-01-01T15:26:51;5.10;;;2.70;;
20080;SDS011;10200;49.232;9.222;2023-01-01T15:29:38;4.20;;;2.80;;
20080;SDS011;10200;49.232;9.222;2023-01-01T15:32:06;5.17;;;2.90;;
20080;SDS011;10200;49.232;9.222;2023-01-01T15:34:47;6.07;;;3.70;;
20080;SDS011;10200;49.232;9.222;2023-01-01T15:42:44;4.10;;;2.70;;
20080;SDS011;10200;49.232;9.222;2023-01-01T15:47:46;5.20;;;2.77;;
20080;SDS011;10200;49.232;9.222;2023-01-01T15:50:23;5.93;;;3.97;;
20080;SDS011;10200;49.232;9.222;2023-01-01T15:55:43;9.63;;;5.63;;
20080;SDS011;10200;49.232;9.222;2023-01-01T15:58:19;15.00;;;7.83;;
20080;SDS011;10200;49.232;9.222;2023-01-01T16:00:57;9.10;;;4.47;;
20080;SDS011;10200;49.232;9.222;2023-01-01T16:03:25;6.13;;;3.70;;
20080;SDS011;10200;49.232;9.222;2023-01-01T16:05:52;6.37;;;3.47;;
20080;SDS011;10200;49.232;9.222;2023-01-01T16:08:21;5.57;;;3.47;;
20080;SDS011;10200;49.232;9.222;2023-01-01T16:10:48;6.70;;;3.83;;
20080;SDS011;10200;49.232;9.222;2023-01-01T16:13:14;4.87;;;3.30;;
20080;SDS011;10200;49.232;9.222;2023-01-01T16:15:50;5.77;;;3.17;;
20080;SDS011;10200;49.232;9.222;2023-01-01T16:18:19;6.10;;;3.67;;
20080;SDS011;10200;49.232;9.222;2023-01-01T16:20:53;9.77;;;5.40;;
20080;SDS011;10200;49.232;9.222;2023-01-01T16:23:19;8.63;;;5.80;;
20080;SDS011;10200;49.232;9.222;2023-01-01T16:25:45;8.57;;;5.90;;
20080;SDS011;10200;49.232;9.222;2023-01-01T16:28:10;11.57;;;6.00;;
20080;SDS011;10200;49.232;9.222;2023-01-01T16:30:36;9.23;;;6.80;;
20080;SDS011;10200;49.232;9.222;2023-01-01T16:33:02;10.57;;;5.80;;
20080;SDS011;10200;49.232;9.222;2023-01-01T16:35:30;25.30;;;11.80;;
20080;SDS011;10200;49.232;9.222;2023-01-01T16:37:55;16.37;;;8.43;;
20080;SDS011;10200;49.232;9.222;2023-01-01T16:40:21;14.67;;;6.80;;
20080;SDS011;10200;49.232;9.222;2023-01-01T16:42:46;8.70;;;5.77;;
20080;SDS011;10200;49.232;9.222;2023-01-01T16:45:16;12.30;;;6.33;;
20080;SDS011;10200;49.232;9.222;2023-01-01T16:47:42;12.83;;;5.93;;
20080;SDS011;10200;49.232;9.222;2023-01-01T16:50:09;8.57;;;4.90;;
20080;SDS011;10200;49.232;9.222;2023-01-01T16:52:36;12.50;;;4.70;;
20080;SDS011;10200;49.232;9.222;2023-01-01T16:55:01;6.07;;;4.43;;
20080;SDS011;10200;49.232;9.222;2023-01-01T16:57:27;9.70;;;4.73;;
20080;SDS011;10200;49.232;9.222;2023-01-01T16:59:53;9.27;;;5.33;;
20080;SDS011;10200;49.232;9.222;2023-01-01T17:02:18;7.87;;;5.23;;